x

Tanner Bank - 121nm West Of San Diego, Ca (46047) Wave Buoy

2:50 - Wed 29th Mar 2017 All times are PDT. -7 hours from GMT.

  • Sig Wave height 9.8ft
  • Swell Direction
  • Peak Period 16s
  • Average Period 9s
  • Wind
    9mph, 13mph gusts
  • Sea Temp 59°f
  • Luft Temp 59°f
  • Sea Pressure 1017.4mb
  • Tanner Bank - 121nm West Of San Diego, Ca
  • Tanner Bank - 121nm West Of San Diego, Ca

More Historic Weather Station data

Upgrade to MSW Pro to gain access to the past 30 days of data for over 8000 Wavebouys and Weather Stations around the globe.

Join Pro

Comparision Forecast

View Surf forecast
   
Mi 03/29 2:50 10ft 16s 9s 9 13 mph 1017.4mb 59f 59f
1:50 10.5ft 16s 9s 9 11 mph 1017.7mb 59f 59f
12:50 12ft 16s 9s 9 11 mph 1017.9mb 59f 59f
11:50 11ft 17s 9s 9 11 mph 1017.8mb 59f 59f
10:50 11ft 16s 10s 9 11 mph 1018mb 59f 58f
9:50 12.5ft 17s 10s 9 11 mph 1017.8mb 58f 58f
8:50 12ft 16s 10s 11 13 mph 1017.5mb 58f 58f
7:50 10ft 17s 9s 9 11 mph 1016.7mb 58f 58f
6:50 11ft 17s 9s 9 11 mph 1016.2mb 58f 58f
5:50 12ft 17s 10s 7 9 mph 1015.9mb 58f 58f
4:50 12ft 17s 9s 11 13 mph 1015.6mb 58f 58f
3:50 11.5ft 17s 9s 13 16 mph 1015.6mb 58f 58f
2:50 12.5ft 17s 9s 13 18 mph 1015.7mb 58f 58f
1:50 12.5ft 17s 9s 16 20 mph 1015.8mb 58f 58f
12:50 11.5ft 17s 8s 13 18 mph 1016mb 58f 58f
Di 03/28 11:50 11ft 17s 8s 20 22 mph 1016mb 58f 58f
10:50 11.5ft 17s 8s 20 25 mph 1015.9mb 58f 58f
9:50 10.5ft 17s 7s 20 27 mph 1015.7mb 58f 58f
8:50 11ft 17s 7s 22 27 mph 1015.8mb 58f 58f
7:50 10ft 17s 7s 22 27 mph 1015.9mb 58f 58f
6:50 11ft 17s 7s 22 27 mph 1015.9mb 58f 58f
5:50 11ft 17s 7s 22 27 mph 1016mb 58f 58f
4:50 11ft 9s 7s 22 27 mph 1015.9mb 59f 58f
3:50 11ft 17s 7s 25 31 mph 1016.1mb 59f 58f
2:50 11ft 19s 7s 25 29 mph 1016.6mb 59f 58f
1:50 11ft 9s 7s 22 29 mph 1017.5mb 58f 58f
12:50 11ft 19s 8s 22 27 mph 1018mb 58f 58f
11:50 11.5ft 19s 8s 22 27 mph 1018.4mb 58f 58f
10:50 11.5ft 10s 7s 22 29 mph 1018.9mb 58f 58f
7:50 11ft 10s 7s 25 29 mph 1017.4mb 58f 57f
6:50 12ft 10s 8s 22 27 mph 1016.6mb 58f 57f
5:50 13ft 10s 7s 25 29 mph 1016.4mb 58f 57f
4:50 13.5ft 10s 8s 25 31 mph 1016.3mb 58f 57f
3:50 13ft 10s 7s 25 31 mph 1016.3mb 58f 57f
2:50 15ft 10s 8s 27 34 mph 1016.8mb 58f 57f
1:50 13ft 10s 7s 27 34 mph 1017.2mb 58f 57f
12:50 15ft 9s 7s 29 36 mph 1017mb 58f 57f
Mo 03/27 11:50 14ft 9s 7s 34 40 mph 1016.8mb 58f 57f
10:50 13ft 9s 7s 29 36 mph 1018.2mb 59f 57f
9:50 13ft 8s 7s 34 45 mph 1016.2mb 59f 57f
8:50 13ft 9s 7s 31 40 mph 1017mb 59f 57f
7:50 13ft 9s 7s 36 45 mph 1016.7mb 59f 57f
6:50 12.5ft 8s 7s 31 38 mph 1016.7mb 59f 58f
5:50 11ft 8s 6s 31 38 mph 1017.2mb 59f 58f
4:50 10.5ft 8s 6s 31 40 mph 1017.3mb 59f 58f
3:50 10ft 8s 6s 31 36 mph 1017.7mb 59f 58f
2:50 10ft 8s 6s 29 36 mph 1017.8mb 59f 58f
1:50 10ft 7s 6s 27 34 mph 1018.2mb 59f 58f
12:50 9ft 7s 6s 29 34 mph 1018.8mb 59f 57f
11:50 8ft 6s 6s 29 34 mph 1019.3mb 59f 57f
10:50 8ft 11s 6s 27 34 mph 1019.1mb 59f 57f
9:50 8ft 6s 6s 27 34 mph 1018.9mb 59f 58f
8:50 7.5ft 12s 6s 25 31 mph 1018.8mb 59f 57f
7:50 7ft 12s 6s 22 29 mph 1018.1mb 59f 58f
6:50 8ft 12s 6s 22 27 mph 1017.5mb 59f 58f
5:50 7ft 12s 6s 27 31 mph 1017.1mb 60f 58f
4:50 8ft 13s 6s 22 27 mph 1017.3mb 60f 58f
3:50 8ft 13s 6s 25 29 mph 1017.5mb 59f 58f
2:50 8ft 12s 6s 25 31 mph 1017.7mb 60f 58f
1:50 7.5ft 13s 6s 22 29 mph 1018.2mb 60f 58f
12:50 8ft 13s 6s 20 25 mph 1018.3mb 60f 58f
So 03/26 11:50 8ft 14s 6s 22 27 mph 1018.6mb 60f 58f
10:50 8ft 14s 7s 22 29 mph 1018.6mb 60f 58f
9:50 8ft 14s 6s 22 25 mph 1018.7mb 60f 58f
8:50 8ft 11s 6s 25 29 mph 1018.3mb 60f 58f
7:50 8ft 14s 6s 22 27 mph 1018.1mb 60f 58f
6:50 8ft 13s 6s 22 27 mph 1018mb 60f 58f
5:50 8ft 13s 6s 22 25 mph 1018.1mb 60f 58f
4:50 8ft 14s 6s 22 27 mph 1018.5mb 60f 58f
3:50 8ft 13s 6s 22 27 mph 1018.9mb 60f 58f
2:50 8.5ft 14s 6s 25 29 mph 1019.1mb 60f 58f
1:50 9ft 14s 7s 22 27 mph 1019.4mb 60f 58f
12:50 8.5ft 14s 7s 20 25 mph 1019.5mb 60f 57f
11:50 9ft 15s 7s 22 25 mph 1019.3mb 60f 57f
10:50 8ft 14s 7s 20 25 mph 1019.1mb 60f 57f
9:50 8.5ft 14s 7s 20 25 mph 1018.6mb 60f 57f
8:50 9ft 14s 7s 18 22 mph 1018.1mb 60f 57f
7:50 8.5ft 15s 7s 20 22 mph 1017.7mb 60f 57f
6:50 8ft 14s 6s 20 25 mph 1017.4mb 60f 57f
5:50 8ft 7s 6s 22 27 mph 1017mb 60f 57f
4:50 8.5ft 15s 7s 20 25 mph 1016.7mb 60f 57f
3:50 8ft 15s 6s 22 27 mph 1016.9mb 60f 57f
2:50 8.5ft 15s 6s 22 29 mph 1017.2mb 60f 57f
1:50 8.5ft 16s 6s 22 27 mph 1017.5mb 60f 57f
12:50 9ft 16s 6s 20 25 mph 1017.8mb 60f 58f
Sa 03/25 11:50 8ft 16s 7s 22 27 mph 1018.2mb 60f 58f